Time,TemperatureF,DewpointF,PressureIn,WindDirection,WindDirectionDegrees,WindSpeedMPH,WindSpeedGustMPH,Humidity,HourlyPrecipIn,Conditions,Clouds,dailyrainin,SoftwareType,DateUTC
2013-01-31 00:02:00,29.5,26.9,28.41,SSW,202,0.0,0.0,90,0.00,,---,0.00,VWS V14.01,2013-01-31 08:02:00,
2013-01-31 00:07:00,29.8,27.3,28.41,South,180,0.0,0.0,90,0.00,,---,0.00,VWS V14.01,2013-01-31 08:07:00,
2013-01-31 00:12:00,29.5,26.9,28.41,South,180,0.0,0.0,90,0.00,,---,0.00,VWS V14.01,2013-01-31 08:12:00,
2013-01-31 00:17:00,29.5,26.9,28.41,SSW,202,0.0,0.0,90,0.00,,---,0.00,VWS V14.01,2013-01-31 08:17:00,
2013-01-31 00:22:00,29.5,26.6,28.41,SSW,202,0.0,0.0,89,0.00,,---,0.00,VWS V14.01,2013-01-31 08:22:00,
2013-01-31 00:27:00,29.3,26.5,28.41,SSW,202,0.0,0.0,89,0.00,,---,0.00,VWS V14.01,2013-01-31 08:27:00,
2013-01-31 00:32:00,29.3,26.5,28.41,SSW,202,0.0,0.0,89,0.00,,---,0.00,VWS V14.01,2013-01-31 08:32:00,
2013-01-31 00:37:00,29.3,26.5,28.41,SSW,202,0.0,0.0,89,0.00,,---,0.00,VWS V14.01,2013-01-31 08:37:00,
2013-01-31 00:42:00,29.3,26.7,28.41,East,90,0.0,0.0,90,0.00,,---,0.00,VWS V14.01,2013-01-31 08:42:00,
2013-01-31 00:47:00,29.1,26.6,28.38,SSW,202,0.0,0.0,90,0.00,,---,0.00,VWS V14.01,2013-01-31 08:47:00,
2013-01-31 00:52:00,29.3,26.7,28.38,WSW,248,0.9,0.9,90,0.00,,---,0.00,VWS V14.01,2013-01-31 08:52:00,
2013-01-31 00:57:00,29.3,26.7,28.38,WSW,248,0.0,0.0,90,0.00,,---,0.00,VWS V14.01,2013-01-31 08:57:00,
2013-01-31 01:02:00,29.5,26.9,28.38,SE,135,0.0,0.0,90,0.00,,---,0.00,VWS V14.01,2013-01-31 09:02:00,
2013-01-31 01:07:00,29.1,26.6,28.38,SSE,158,0.0,0.0,90,0.00,,---,0.00,VWS V14.01,2013-01-31 09:07:00,
2013-01-31 01:12:00,28.8,26.2,28.38,SSE,158,0.0,0.0,90,0.00,,---,0.00,VWS V14.01,2013-01-31 09:12:00,
2013-01-31 01:17:00,28.8,25.9,28.38,WSW,248,0.0,0.0,89,0.00,,---,0.00,VWS V14.01,2013-01-31 09:17:00,
2013-01-31 01:22:00,28.9,26.4,28.38,NNE,22,0.0,0.0,90,0.00,,---,0.00,VWS V14.01,2013-01-31 09:22:00,
2013-01-31 01:27:00,28.8,26.2,28.38,WSW,248,0.0,0.0,90,0.00,,---,0.00,VWS V14.01,2013-01-31 09:27:00,
2013-01-31 01:32:00,28.8,26.2,28.38,SSW,202,0.0,0.0,90,0.00,,---,0.00,VWS V14.01,2013-01-31 09:32:00,
2013-01-31 01:37:00,28.6,26.0,28.38,SW,225,0.0,0.0,90,0.00,,---,0.00,VWS V14.01,2013-01-31 09:37:00,
2013-01-31 01:42:00,28.6,26.0,28.38,ESE,112,0.0,0.0,90,0.00,,---,0.00,VWS V14.01,2013-01-31 09:42:00,
2013-01-31 01:47:00,28.6,26.0,28.38,SSE,158,0.0,0.0,90,0.00,,---,0.00,VWS V14.01,2013-01-31 09:47:00,
2013-01-31 01:52:00,28.4,26.1,28.38,SSW,202,0.0,0.0,91,0.00,,---,0.00,VWS V14.01,2013-01-31 09:52:00,
2013-01-31 01:57:00,28.4,26.1,28.38,WSW,248,0.0,0.0,91,0.00,,---,0.00,VWS V14.01,2013-01-31 09:57:00,
2013-01-31 02:02:00,28.6,26.3,28.41,SW,225,0.0,0.0,91,0.00,,---,0.00,VWS V14.01,2013-01-31 10:02:00,
2013-01-31 02:08:00,28.6,26.6,28.41,SE,135,0.0,0.0,92,0.00,,---,0.00,VWS V14.01,2013-01-31 10:08:00,
2013-01-31 02:12:00,28.6,26.6,28.41,WSW,248,0.0,0.0,92,0.00,,---,0.00,VWS V14.01,2013-01-31 10:12:00,
2013-01-31 02:17:00,28.8,26.7,28.38,East,90,0.0,0.0,92,0.00,,---,0.00,VWS V14.01,2013-01-31 10:17:00,
2013-01-31 02:22:00,28.8,26.7,28.38,East,90,0.0,0.0,92,0.00,,---,0.00,VWS V14.01,2013-01-31 10:22:00,
2013-01-31 02:27:00,28.8,26.7,28.38,East,90,0.0,0.0,92,0.00,,---,0.00,VWS V14.01,2013-01-31 10:27:00,
2013-01-31 02:33:00,28.6,26.6,28.38,WSW,248,0.0,0.0,92,0.00,,---,0.00,VWS V14.01,2013-01-31 10:33:00,
2013-01-31 02:38:00,28.6,26.6,28.38,WSW,248,0.0,0.0,92,0.00,,---,0.00,VWS V14.01,2013-01-31 10:38:00,
2013-01-31 02:43:00,28.6,26.6,28.38,SSW,202,0.0,0.0,92,0.00,,---,0.00,VWS V14.01,2013-01-31 10:43:00,
2013-01-31 02:48:00,28.6,26.6,28.38,NE,45,0.0,0.0,92,0.00,,---,0.00,VWS V14.01,2013-01-31 10:48:00,
2013-01-31 02:53:00,28.4,26.4,28.38,NE,45,0.0,0.0,92,0.00,,---,0.00,VWS V14.01,2013-01-31 10:53:00,
2013-01-31 02:58:00,28.6,26.6,28.38,NNE,22,0.0,0.0,92,0.00,,---,0.00,VWS V14.01,2013-01-31 10:58:00,
2013-01-31 03:03:00,28.6,26.6,28.38,NNE,22,0.0,0.0,92,0.00,,---,0.00,VWS V14.01,2013-01-31 11:03:00,
2013-01-31 03:08:00,28.6,26.6,28.38,ENE,68,0.0,0.0,92,0.00,,---,0.00,VWS V14.01,2013-01-31 11:08:00,
2013-01-31 03:13:00,28.6,26.6,28.38,SSW,202,0.0,0.0,92,0.00,,---,0.00,VWS V14.01,2013-01-31 11:13:00,
2013-01-31 03:18:00,28.4,26.4,28.41,SSW,202,0.0,0.0,92,0.00,,---,0.00,VWS V14.01,2013-01-31 11:18:00,
2013-01-31 03:23:00,28.8,26.7,28.41,SW,225,0.0,0.0,92,0.00,,---,0.00,VWS V14.01,2013-01-31 11:23:00,
2013-01-31 03:28:00,28.6,26.6,28.41,South,180,0.0,0.0,92,0.00,,---,0.00,VWS V14.01,2013-01-31 11:28:00,
2013-01-31 03:33:00,28.2,26.2,28.38,SW,225,0.0,0.0,92,0.00,,---,0.00,VWS V14.01,2013-01-31 11:33:00,
2013-01-31 03:38:00,28.2,26.2,28.38,NNW,338,0.0,0.0,92,0.00,,---,0.00,VWS V14.01,2013-01-31 11:38:00,
2013-01-31 03:43:00,28.2,26.2,28.38,SSW,202,0.0,0.0,92,0.00,,---,0.00,VWS V14.01,2013-01-31 11:43:00,
2013-01-31 03:48:00,28.2,26.5,28.41,SW,225,0.0,0.9,93,0.00,,---,0.00,VWS V14.01,2013-01-31 11:48:00,
2013-01-31 03:53:00,28.6,26.8,28.41,SE,135,0.0,0.0,93,0.00,,---,0.00,VWS V14.01,2013-01-31 11:53:00,
2013-01-31 03:58:00,28.2,26.7,28.41,NW,315,0.0,0.0,94,0.00,,---,0.00,VWS V14.01,2013-01-31 11:58:00,
2013-01-31 04:03:00,28.0,26.3,28.41,SW,225,0.0,0.0,93,0.00,,---,0.00,VWS V14.01,2013-01-31 12:03:00,
2013-01-31 04:08:00,28.0,26.3,28.41,SW,225,0.0,0.0,93,0.00,,---,0.00,VWS V14.01,2013-01-31 12:08:00,
2013-01-31 04:13:00,27.9,26.1,28.41,SW,225,0.0,0.0,93,0.00,,---,0.00,VWS V14.01,2013-01-31 12:13:00,
2013-01-31 04:18:00,27.7,25.9,28.41,SW,225,0.0,0.0,93,0.00,,---,0.00,VWS V14.01,2013-01-31 12:18:00,
2013-01-31 04:23:00,27.7,25.9,28.41,SW,225,0.0,0.0,93,0.00,,---,0.00,VWS V14.01,2013-01-31 12:23:00,
2013-01-31 04:28:00,27.7,25.9,28.41,SW,225,0.0,0.0,93,0.00,,---,0.00,VWS V14.01,2013-01-31 12:28:00,
2013-01-31 04:33:00,27.5,25.8,28.41,SSW,202,0.0,0.0,93,0.00,,---,0.00,VWS V14.01,2013-01-31 12:33:00,
2013-01-31 04:38:00,27.3,25.3,28.41,SSW,202,0.0,0.0,92,0.00,,---,0.00,VWS V14.01,2013-01-31 12:38:00,
2013-01-31 04:43:00,27.1,25.1,28.41,South,180,0.0,0.0,92,0.00,,---,0.00,VWS V14.01,2013-01-31 12:43:00,
2013-01-31 04:48:00,27.1,25.1,28.41,SSW,202,0.0,0.0,92,0.00,,---,0.00,VWS V14.01,2013-01-31 12:48:00,
2013-01-31 04:53:00,27.3,25.6,28.41,SSW,202,0.0,0.0,93,0.00,,---,0.00,VWS V14.01,2013-01-31 12:53:00,
2013-01-31 04:59:00,27.0,25.2,28.38,South,180,0.0,0.0,93,0.00,,---,0.00,VWS V14.01,2013-01-31 12:59:00,
2013-01-31 05:04:00,27.0,25.2,28.38,NNE,22,0.0,0.0,93,0.00,,---,0.00,VWS V14.01,2013-01-31 13:04:00,
2013-01-31 05:09:00,27.3,25.6,28.38,SSE,158,0.0,0.0,93,0.00,,---,0.00,VWS V14.01,2013-01-31 13:09:00,
2013-01-31 05:19:00,27.1,25.6,28.38,SSW,202,0.0,0.0,94,0.00,,---,0.00,VWS V14.01,2013-01-31 13:19:00,
2013-01-31 05:24:00,27.0,25.2,28.38,SSW,202,0.0,0.0,93,0.00,,---,0.00,VWS V14.01,2013-01-31 13:24:00,
2013-01-31 05:29:00,27.0,25.2,28.38,SSW,202,0.0,0.0,93,0.00,,---,0.00,VWS V14.01,2013-01-31 13:29:00,
2013-01-31 05:34:00,27.0,25.2,28.38,ENE,68,0.0,0.0,93,0.00,,---,0.00,VWS V14.01,2013-01-31 13:34:00,
2013-01-31 05:39:00,26.8,25.0,28.38,ENE,68,0.0,0.0,93,0.00,,---,0.00,VWS V14.01,2013-01-31 13:39:00,
2013-01-31 05:44:00,26.8,25.0,28.41,ESE,112,0.0,0.0,93,0.00,,---,0.00,VWS V14.01,2013-01-31 13:44:00,
2013-01-31 05:49:00,27.0,25.5,28.41,ENE,68,0.0,0.0,94,0.00,,---,0.00,VWS V14.01,2013-01-31 13:49:00,
2013-01-31 05:54:00,27.0,25.2,28.41,NNW,338,0.9,0.9,93,0.00,,---,0.00,VWS V14.01,2013-01-31 13:54:00,
2013-01-31 05:59:00,26.6,25.1,28.38,NW,315,0.0,0.0,94,0.00,,---,0.00,VWS V14.01,2013-01-31 13:59:00,
2013-01-31 06:04:00,26.4,24.9,28.38,WSW,248,0.0,0.0,94,0.00,,---,0.00,VWS V14.01,2013-01-31 14:04:00,
2013-01-31 06:09:00,26.6,25.1,28.38,ENE,68,0.0,0.0,94,0.00,,---,0.00,VWS V14.01,2013-01-31 14:09:00,
2013-01-31 06:15:00,26.4,24.9,28.38,ENE,68,0.0,0.0,94,0.00,,---,0.00,VWS V14.01,2013-01-31 14:15:00,
2013-01-31 06:20:00,26.2,24.8,28.38,SW,225,0.0,0.0,94,0.00,,---,0.00,VWS V14.01,2013-01-31 14:20:00,
2013-01-31 06:25:00,26.4,24.9,28.38,WSW,248,0.0,0.0,94,0.00,,---,0.00,VWS V14.01,2013-01-31 14:25:00,
2013-01-31 06:30:00,26.6,25.1,28.38,WSW,248,0.0,0.0,94,0.00,,---,0.00,VWS V14.01,2013-01-31 14:30:00,
2013-01-31 06:35:00,26.8,25.3,28.38,West,270,0.0,0.0,94,0.00,,---,0.00,VWS V14.01,2013-01-31 14:35:00,
2013-01-31 06:40:00,26.8,25.3,28.38,South,180,0.0,0.0,94,0.00,,---,0.00,VWS V14.01,2013-01-31 14:40:00,
2013-01-31 06:45:00,26.4,24.9,28.38,SSW,202,0.0,0.0,94,0.00,,---,0.00,VWS V14.01,2013-01-31 14:45:00,
2013-01-31 06:50:00,26.6,25.1,28.38,SSE,158,0.0,0.0,94,0.00,,---,0.00,VWS V14.01,2013-01-31 14:50:00,
2013-01-31 06:55:00,26.6,25.1,28.38,South,180,0.0,0.0,94,0.00,,---,0.00,VWS V14.01,2013-01-31 14:55:00,
2013-01-31 07:00:00,26.8,25.3,28.38,SW,225,0.0,0.0,94,0.00,,---,0.00,VWS V14.01,2013-01-31 15:00:00,
2013-01-31 07:05:00,27.0,25.7,28.38,WSW,248,0.0,0.0,95,0.00,,---,0.00,VWS V14.01,2013-01-31 15:05:00,
2013-01-31 07:10:00,27.1,25.9,28.38,WSW,248,0.0,0.0,95,0.00,,---,0.00,VWS V14.01,2013-01-31 15:10:00,
2013-01-31 07:15:00,27.3,26.1,28.38,South,180,0.0,0.0,95,0.00,,---,0.00,VWS V14.01,2013-01-31 15:15:00,
2013-01-31 07:20:00,27.3,26.1,28.38,SSW,202,0.0,0.0,95,0.00,,---,0.00,VWS V14.01,2013-01-31 15:20:00,
2013-01-31 07:25:00,27.3,26.1,28.38,SSW,202,0.0,0.0,95,0.00,,---,0.00,VWS V14.01,2013-01-31 15:25:00,
2013-01-31 07:30:00,27.5,26.3,28.41,SSW,202,0.0,0.0,95,0.00,,---,0.00,VWS V14.01,2013-01-31 15:30:00,
2013-01-31 07:35:00,27.5,26.3,28.41,SSW,202,0.0,0.0,95,0.00,,---,0.00,VWS V14.01,2013-01-31 15:35:00,
2013-01-31 07:40:00,27.7,26.4,28.41,SSW,202,0.0,0.0,95,0.00,,---,0.00,VWS V14.01,2013-01-31 15:40:00,
2013-01-31 07:45:00,28.0,27.0,28.38,SW,225,0.0,0.0,96,0.00,,---,0.00,VWS V14.01,2013-01-31 15:45:00,
2013-01-31 07:50:00,28.0,27.0,28.38,SW,225,0.0,0.0,96,0.00,,---,0.00,VWS V14.01,2013-01-31 15:50:00,
2013-01-31 07:55:00,28.2,27.2,28.38,SW,225,0.0,0.0,96,0.00,,---,0.00,VWS V14.01,2013-01-31 15:55:00,
2013-01-31 08:00:00,28.2,27.2,28.38,SSW,202,0.0,0.0,96,0.00,,---,0.00,VWS V14.01,2013-01-31 16:00:00,
2013-01-31 08:05:00,28.4,27.4,28.38,SSW,202,0.0,0.0,96,0.00,,---,0.00,VWS V14.01,2013-01-31 16:05:00,
2013-01-31 08:10:00,28.6,27.3,28.38,SW,225,0.0,0.0,95,0.00,,---,0.00,VWS V14.01,2013-01-31 16:10:00,
2013-01-31 08:15:00,28.6,27.3,28.38,SW,225,0.0,0.0,95,0.00,,---,0.00,VWS V14.01,2013-01-31 16:15:00,
2013-01-31 08:20:00,29.1,28.1,28.38,SW,225,0.0,0.0,96,0.00,,---,0.00,VWS V14.01,2013-01-31 16:20:00,
2013-01-31 08:25:00,29.5,28.5,28.38,NNW,338,0.0,0.0,96,0.00,,---,0.00,VWS V14.01,2013-01-31 16:25:00,
2013-01-31 08:30:00,29.5,28.5,28.38,SW,225,0.0,0.0,96,0.00,,---,0.00,VWS V14.01,2013-01-31 16:30:00,
2013-01-31 08:35:00,29.7,28.7,28.38,SW,225,0.0,0.0,96,0.00,,---,0.00,VWS V14.01,2013-01-31 16:35:00,
2013-01-31 08:40:00,29.7,28.7,28.38,SW,225,0.0,0.0,96,0.00,,---,0.00,VWS V14.01,2013-01-31 16:40:00,
2013-01-31 08:45:00,29.7,28.4,28.41,SW,225,0.0,0.0,95,0.00,,---,0.00,VWS V14.01,2013-01-31 16:45:00,
2013-01-31 08:50:00,29.8,28.6,28.41,SE,135,0.0,0.0,95,0.00,,---,0.00,VWS V14.01,2013-01-31 16:50:00,
2013-01-31 08:55:00,29.7,28.4,28.41,SSW,202,0.0,0.0,95,0.00,,---,0.00,VWS V14.01,2013-01-31 16:55:00,
2013-01-31 09:00:00,29.8,28.6,28.41,SSW,202,0.0,0.0,95,0.00,,---,0.00,VWS V14.01,2013-01-31 17:00:00,
2013-01-31 09:05:00,30.4,29.1,28.41,SSW,202,0.0,0.0,95,0.00,,---,0.00,VWS V14.01,2013-01-31 17:05:00,
2013-01-31 09:10:00,31.1,29.8,28.41,SSW,202,0.0,0.0,95,0.00,,---,0.00,VWS V14.01,2013-01-31 17:10:00,
2013-01-31 09:15:00,31.3,30.0,28.41,ENE,68,0.0,0.0,95,0.00,,---,0.00,VWS V14.01,2013-01-31 17:15:00,
2013-01-31 09:20:00,31.3,30.0,28.41,East,90,0.0,0.0,95,0.00,,---,0.00,VWS V14.01,2013-01-31 17:20:00,
2013-01-31 09:25:00,32.4,31.1,28.41,SSE,158,0.0,0.0,95,0.00,,---,0.00,VWS V14.01,2013-01-31 17:25:00,
2013-01-31 09:30:00,32.2,30.9,28.41,NE,45,0.0,0.0,95,0.00,,---,0.00,VWS V14.01,2013-01-31 17:30:00,
2013-01-31 09:35:00,32.0,30.5,28.41,ESE,112,0.0,0.0,94,0.00,,---,0.00,VWS V14.01,2013-01-31 17:35:00,
2013-01-31 09:40:00,32.2,30.6,28.41,SSW,202,0.0,0.0,94,0.00,,---,0.00,VWS V14.01,2013-01-31 17:40:00,
2013-01-31 09:45:00,32.5,31.0,28.41,SSW,202,0.0,0.0,94,0.00,,---,0.00,VWS V14.01,2013-01-31 17:45:00,
2013-01-31 09:50:00,32.7,31.2,28.41,West,270,0.0,0.0,94,0.00,,---,0.00,VWS V14.01,2013-01-31 17:50:00,
2013-01-31 09:55:00,33.4,31.9,28.41,SW,225,0.0,0.0,94,0.00,,---,0.00,VWS V14.01,2013-01-31 17:55:00,
2013-01-31 10:00:00,33.6,32.1,28.41,SW,225,0.0,0.0,94,0.00,,---,0.00,VWS V14.01,2013-01-31 18:00:00,
2013-01-31 10:05:00,33.6,31.8,28.41,SW,225,0.0,0.0,93,0.00,,---,0.00,VWS V14.01,2013-01-31 18:05:00,
2013-01-31 10:10:00,35.8,34.0,28.41,WSW,248,0.0,0.0,93,0.00,,---,0.00,VWS V14.01,2013-01-31 18:10:00,
2013-01-31 10:15:00,35.2,33.7,28.41,WSW,248,0.0,0.0,94,0.00,,---,0.00,VWS V14.01,2013-01-31 18:15:00,
2013-01-31 10:20:00,34.2,31.5,28.41,WSW,248,0.0,0.0,90,0.00,,---,0.00,VWS V14.01,2013-01-31 18:20:00,
2013-01-31 10:26:00,34.7,32.1,28.41,WSW,248,0.0,0.0,90,0.00,,---,0.00,VWS V14.01,2013-01-31 18:26:00,
2013-01-31 10:31:00,35.4,32.8,28.41,WSW,248,0.0,0.0,90,0.00,,---,0.00,VWS V14.01,2013-01-31 18:31:00,
2013-01-31 10:36:00,37.9,36.1,28.41,SW,225,0.0,0.0,93,0.00,,---,0.00,VWS V14.01,2013-01-31 18:36:00,
2013-01-31 10:41:00,38.1,36.3,28.41,SW,225,0.0,0.0,93,0.00,,---,0.00,VWS V14.01,2013-01-31 18:41:00,
2013-01-31 10:46:00,38.8,36.2,28.38,SW,225,0.0,0.0,90,0.00,,---,0.00,VWS V14.01,2013-01-31 18:46:00,
2013-01-31 10:51:00,39.0,36.1,28.38,SSW,202,0.0,0.0,89,0.00,,---,0.00,VWS V14.01,2013-01-31 18:51:00,
2013-01-31 10:56:00,39.4,35.8,28.38,SW,225,0.0,0.0,87,0.00,,---,0.00,VWS V14.01,2013-01-31 18:56:00,
2013-01-31 11:01:00,39.4,35.8,28.38,SSW,202,0.0,0.0,87,0.00,,---,0.00,VWS V14.01,2013-01-31 19:01:00,
2013-01-31 11:06:00,40.1,36.3,28.38,SW,225,0.0,0.0,86,0.00,,---,0.00,VWS V14.01,2013-01-31 19:06:00,
2013-01-31 11:11:00,40.8,37.0,28.38,SW,225,0.0,0.0,86,0.00,,---,0.00,VWS V14.01,2013-01-31 19:11:00,
2013-01-31 11:16:00,40.8,36.7,28.38,SW,225,0.0,0.0,85,0.00,,---,0.00,VWS V14.01,2013-01-31 19:16:00,
2013-01-31 11:21:00,40.6,34.3,28.38,SW,225,0.0,0.0,78,0.00,,---,0.00,VWS V14.01,2013-01-31 19:21:00,
2013-01-31 11:26:00,41.2,35.2,28.38,SW,225,0.0,0.0,79,0.00,,---,0.00,VWS V14.01,2013-01-31 19:26:00,
2013-01-31 11:31:00,41.4,34.0,28.38,WSW,248,0.0,0.0,75,0.00,,---,0.00,VWS V14.01,2013-01-31 19:31:00,
2013-01-31 11:36:00,42.3,35.6,28.38,WSW,248,0.0,0.0,77,0.00,,---,0.00,VWS V14.01,2013-01-31 19:36:00,
2013-01-31 11:41:00,42.1,34.4,28.38,WSW,248,0.0,0.0,74,0.00,,---,0.00,VWS V14.01,2013-01-31 19:41:00,
2013-01-31 11:46:00,43.7,36.0,28.38,WSW,248,0.0,0.0,74,0.00,,---,0.00,VWS V14.01,2013-01-31 19:46:00,
2013-01-31 11:51:00,46.4,38.2,28.38,WSW,248,0.0,0.0,73,0.00,,---,0.00,VWS V14.01,2013-01-31 19:51:00,
2013-01-31 11:56:00,46.6,36.2,28.38,WSW,248,0.0,0.0,67,0.00,,---,0.00,VWS V14.01,2013-01-31 19:56:00,
2013-01-31 12:01:00,45.9,35.9,28.38,WSW,248,0.0,0.0,68,0.00,,---,0.00,VWS V14.01,2013-01-31 20:01:00,
2013-01-31 12:06:00,43.3,30.8,28.38,WSW,248,0.0,0.0,61,0.00,,---,0.00,VWS V14.01,2013-01-31 20:06:00,
2013-01-31 12:11:00,43.5,33.3,28.38,SW,225,0.0,0.0,67,0.00,,---,0.00,VWS V14.01,2013-01-31 20:11:00,
2013-01-31 12:16:00,44.6,34.0,28.38,WSW,248,0.0,0.0,66,0.00,,---,0.00,VWS V14.01,2013-01-31 20:16:00,
2013-01-31 12:21:00,43.9,32.5,28.38,WSW,248,2.0,2.5,64,0.00,,---,0.00,VWS V14.01,2013-01-31 20:21:00,
2013-01-31 12:26:00,44.2,34.0,28.38,WSW,248,2.0,2.0,67,0.00,,---,0.00,VWS V14.01,2013-01-31 20:26:00,
2013-01-31 12:32:00,44.8,33.0,28.35,WSW,248,0.0,0.9,63,0.00,,---,0.00,VWS V14.01,2013-01-31 20:32:00,
2013-01-31 12:37:00,44.8,32.6,28.35,WSW,248,0.0,0.0,62,0.00,,---,0.00,VWS V14.01,2013-01-31 20:37:00,
2013-01-31 12:42:00,44.1,33.1,28.35,WSW,248,0.0,0.0,65,0.00,,---,0.00,VWS V14.01,2013-01-31 20:42:00,
2013-01-31 12:47:00,44.2,33.2,28.38,WSW,248,0.0,0.0,65,0.00,,---,0.00,VWS V14.01,2013-01-31 20:47:00,
2013-01-31 12:52:00,44.1,31.5,28.38,WSW,248,2.5,2.5,61,0.00,,---,0.00,VWS V14.01,2013-01-31 20:52:00,
2013-01-31 12:57:00,44.2,32.1,28.38,WSW,248,0.0,0.0,62,0.00,,---,0.00,VWS V14.01,2013-01-31 20:57:00,
2013-01-31 13:02:00,44.8,33.0,28.35,SW,225,0.0,0.0,63,0.00,,---,0.00,VWS V14.01,2013-01-31 21:02:00,
2013-01-31 13:07:00,45.0,31.5,28.35,WSW,248,0.0,0.0,59,0.00,,---,0.00,VWS V14.01,2013-01-31 21:07:00,
2013-01-31 13:12:00,45.0,32.3,28.35,WSW,248,0.0,0.0,61,0.00,,---,0.00,VWS V14.01,2013-01-31 21:12:00,
2013-01-31 13:17:00,45.1,31.3,28.35,SW,225,1.3,3.1,58,0.00,,---,0.00,VWS V14.01,2013-01-31 21:17:00,
2013-01-31 13:22:00,45.0,31.1,28.35,WSW,248,2.0,2.9,58,0.00,,---,0.00,VWS V14.01,2013-01-31 21:22:00,
2013-01-31 13:27:00,44.1,30.2,28.35,West,270,2.2,3.4,58,0.00,,---,0.00,VWS V14.01,2013-01-31 21:27:00,
2013-01-31 13:32:00,42.3,29.4,28.35,WSW,248,2.5,2.5,60,0.00,,---,0.00,VWS V14.01,2013-01-31 21:32:00,
2013-01-31 13:37:00,41.2,29.2,28.35,WSW,248,2.5,2.5,62,0.00,,---,0.00,VWS V14.01,2013-01-31 21:37:00,
2013-01-31 13:42:00,40.6,29.4,28.35,SW,225,2.5,2.5,64,0.00,,---,0.00,VWS V14.01,2013-01-31 21:42:00,
2013-01-31 13:47:00,40.6,29.8,28.35,WSW,248,0.0,1.1,65,0.00,,---,0.00,VWS V14.01,2013-01-31 21:47:00,
2013-01-31 13:52:00,41.0,30.5,28.35,WSW,248,0.0,0.0,66,0.00,,---,0.00,VWS V14.01,2013-01-31 21:52:00,
2013-01-31 13:57:00,41.5,31.4,28.35,WSW,248,0.0,0.0,67,0.00,,---,0.00,VWS V14.01,2013-01-31 21:57:00,
2013-01-31 14:02:00,42.1,31.9,28.35,WSW,248,0.0,0.0,67,0.00,,---,0.00,VWS V14.01,2013-01-31 22:02:00,
2013-01-31 14:07:00,42.3,31.7,28.35,WSW,248,0.0,0.0,66,0.00,,---,0.00,VWS V14.01,2013-01-31 22:07:00,
2013-01-31 14:12:00,42.4,31.9,28.35,WSW,248,0.0,0.0,66,0.00,,---,0.00,VWS V14.01,2013-01-31 22:12:00,
2013-01-31 14:17:00,42.8,31.9,28.32,WSW,248,0.0,0.0,65,0.00,,---,0.00,VWS V14.01,2013-01-31 22:17:00,
2013-01-31 14:22:00,43.0,32.4,28.32,SW,225,0.0,0.0,66,0.00,,---,0.00,VWS V14.01,2013-01-31 22:22:00,
2013-01-31 14:27:00,43.3,32.4,28.32,WSW,248,0.0,0.0,65,0.00,,---,0.00,VWS V14.01,2013-01-31 22:27:00,
2013-01-31 14:32:00,43.0,31.6,28.35,SW,225,0.0,0.0,64,0.00,,---,0.00,VWS V14.01,2013-01-31 22:32:00,
2013-01-31 14:37:00,43.0,31.3,28.35,WSW,248,0.0,0.0,63,0.00,,---,0.00,VWS V14.01,2013-01-31 22:37:00,
2013-01-31 14:42:00,42.4,30.8,28.35,WSW,248,0.0,0.0,63,0.00,,---,0.00,VWS V14.01,2013-01-31 22:42:00,
2013-01-31 14:47:00,42.4,30.8,28.32,WSW,248,0.0,0.0,63,0.00,,---,0.00,VWS V14.01,2013-01-31 22:47:00,
2013-01-31 14:52:00,42.6,31.3,28.32,WSW,248,0.0,0.0,64,0.00,,---,0.00,VWS V14.01,2013-01-31 22:52:00,
2013-01-31 14:57:00,42.6,31.3,28.32,WSW,248,0.0,0.0,64,0.00,,---,0.00,VWS V14.01,2013-01-31 22:57:00,
2013-01-31 15:02:00,42.4,30.8,28.35,WSW,248,0.0,0.0,63,0.00,,---,0.00,VWS V14.01,2013-01-31 23:02:00,
2013-01-31 15:08:00,42.4,31.1,28.35,SW,225,0.0,0.0,64,0.00,,---,0.00,VWS V14.01,2013-01-31 23:08:00,
2013-01-31 15:13:00,41.9,30.6,28.35,WSW,248,0.0,0.0,64,0.00,,---,0.00,VWS V14.01,2013-01-31 23:13:00,
2013-01-31 15:18:00,41.5,30.3,28.35,West,270,0.0,0.0,64,0.00,,---,0.00,VWS V14.01,2013-01-31 23:18:00,
2013-01-31 15:23:00,41.5,30.7,28.35,WSW,248,0.0,0.0,65,0.00,,---,0.00,VWS V14.01,2013-01-31 23:23:00,
2013-01-31 15:28:00,41.0,30.1,28.35,WSW,248,0.0,0.0,65,0.00,,---,0.00,VWS V14.01,2013-01-31 23:28:00,
2013-01-31 15:33:00,41.0,30.5,28.32,WSW,248,0.0,0.0,66,0.00,,---,0.00,VWS V14.01,2013-01-31 23:33:00,
2013-01-31 15:38:00,40.8,30.7,28.32,WSW,248,0.0,0.0,67,0.00,,---,0.00,VWS V14.01,2013-01-31 23:38:00,
2013-01-31 15:43:00,40.3,30.2,28.32,West,270,0.0,0.0,67,0.00,,---,0.00,VWS V14.01,2013-01-31 23:43:00,
2013-01-31 15:48:00,39.7,30.1,28.32,West,270,0.0,0.0,68,0.00,,---,0.00,VWS V14.01,2013-01-31 23:48:00,
2013-01-31 15:53:00,39.4,29.7,28.32,WSW,248,0.0,0.0,68,0.00,,---,0.00,VWS V14.01,2013-01-31 23:53:00,
2013-01-31 15:58:00,39.2,29.9,28.32,WSW,248,0.0,0.0,69,0.00,,---,0.00,VWS V14.01,2013-01-31 23:58:00,
2013-01-31 16:03:00,39.2,29.9,28.32,WSW,248,0.0,0.0,69,0.00,,---,0.00,VWS V14.01,2013-02-01 00:03:00,
2013-01-31 16:08:00,39.2,30.2,28.32,WSW,248,0.0,0.0,70,0.00,,---,0.00,VWS V14.01,2013-02-01 00:08:00,
2013-01-31 16:13:00,38.7,30.1,28.32,WSW,248,0.0,0.0,71,0.00,,---,0.00,VWS V14.01,2013-02-01 00:13:00,
2013-01-31 16:18:00,38.3,29.7,28.32,WSW,248,0.0,0.0,71,0.00,,---,0.00,VWS V14.01,2013-02-01 00:18:00,
2013-01-31 16:23:00,37.9,29.7,28.32,WSW,248,0.0,0.0,72,0.00,,---,0.00,VWS V14.01,2013-02-01 00:23:00,
2013-01-31 16:28:00,37.6,29.7,28.32,WSW,248,0.0,0.0,73,0.00,,---,0.00,VWS V14.01,2013-02-01 00:28:00,
2013-01-31 16:33:00,37.0,29.5,28.32,WSW,248,0.0,0.0,74,0.00,,---,0.00,VWS V14.01,2013-02-01 00:33:00,
2013-01-31 16:38:00,36.7,29.5,28.32,WSW,248,0.0,0.0,75,0.00,,---,0.00,VWS V14.01,2013-02-01 00:38:00,
2013-01-31 16:43:00,36.5,29.0,28.32,SW,225,0.0,0.0,74,0.00,,---,0.00,VWS V14.01,2013-02-01 00:43:00,
2013-01-31 16:48:00,36.1,29.0,28.32,NNE,22,0.0,0.0,75,0.00,,---,0.00,VWS V14.01,2013-02-01 00:48:00,
2013-01-31 16:53:00,35.8,29.0,28.32,WNW,292,0.0,0.0,76,0.00,,---,0.00,VWS V14.01,2013-02-01 00:53:00,
2013-01-31 16:58:00,35.6,28.8,28.32,WSW,248,0.0,0.0,76,0.00,,---,0.00,VWS V14.01,2013-02-01 00:58:00,
2013-01-31 17:03:00,35.1,28.6,28.32,West,270,0.0,0.0,77,0.00,,---,0.00,VWS V14.01,2013-02-01 01:03:00,
2013-01-31 17:08:00,35.1,28.6,28.32,WSW,248,0.0,0.0,77,0.00,,---,0.00,VWS V14.01,2013-02-01 01:08:00,
2013-01-31 17:13:00,34.7,28.5,28.32,WSW,248,0.0,0.0,78,0.00,,---,0.00,VWS V14.01,2013-02-01 01:13:00,
2013-01-31 17:18:00,34.9,28.7,28.32,WSW,248,0.0,0.0,78,0.00,,---,0.00,VWS V14.01,2013-02-01 01:18:00,
2013-01-31 17:23:00,34.7,28.9,28.32,WSW,248,0.0,0.0,79,0.00,,---,0.00,VWS V14.01,2013-02-01 01:23:00,
2013-01-31 17:28:00,34.5,28.7,28.32,WNW,292,0.0,0.0,79,0.00,,---,0.00,VWS V14.01,2013-02-01 01:28:00,
2013-01-31 17:33:00,34.5,29.0,28.32,West,270,0.0,0.0,80,0.00,,---,0.00,VWS V14.01,2013-02-01 01:33:00,
2013-01-31 17:38:00,34.3,28.8,28.32,WSW,248,0.0,0.0,80,0.00,,---,0.00,VWS V14.01,2013-02-01 01:38:00,
2013-01-31 17:43:00,34.3,28.8,28.32,WSW,248,0.0,0.0,80,0.00,,---,0.00,VWS V14.01,2013-02-01 01:43:00,
2013-01-31 17:48:00,34.0,28.8,28.32,WSW,248,0.0,0.0,81,0.00,,---,0.00,VWS V14.01,2013-02-01 01:48:00,
2013-01-31 17:53:00,33.8,28.6,28.32,WSW,248,0.0,0.0,81,0.00,,---,0.00,VWS V14.01,2013-02-01 01:53:00,
2013-01-31 17:58:00,33.6,28.7,28.32,WSW,248,0.0,0.0,82,0.00,,---,0.00,VWS V14.01,2013-02-01 01:58:00,
2013-01-31 18:03:00,33.6,28.7,28.32,WSW,248,0.0,0.0,82,0.00,,---,0.00,VWS V14.01,2013-02-01 02:03:00,
2013-01-31 18:08:00,33.6,29.0,28.32,SSW,202,0.0,0.0,83,0.00,,---,0.00,VWS V14.01,2013-02-01 02:08:00,
2013-01-31 18:13:00,33.3,29.0,28.32,NW,315,0.0,0.0,84,0.00,,---,0.00,VWS V14.01,2013-02-01 02:13:00,
2013-01-31 18:18:00,33.3,29.0,28.32,WNW,292,0.0,0.0,84,0.00,,---,0.00,VWS V14.01,2013-02-01 02:18:00,
2013-01-31 18:23:00,33.3,29.2,28.32,WSW,248,0.0,0.0,85,0.00,,---,0.00,VWS V14.01,2013-02-01 02:23:00,
2013-01-31 18:28:00,33.3,29.2,28.32,East,90,0.0,0.0,85,0.00,,---,0.00,VWS V14.01,2013-02-01 02:28:00,
2013-01-31 18:33:00,33.1,29.1,28.32,SW,225,0.0,0.0,85,0.00,,---,0.00,VWS V14.01,2013-02-01 02:33:00,
2013-01-31 18:38:00,33.1,29.4,28.32,SSW,202,0.0,0.0,86,0.00,,---,0.00,VWS V14.01,2013-02-01 02:38:00,
2013-01-31 18:43:00,32.9,28.9,28.32,SSW,202,0.0,0.0,85,0.00,,---,0.00,VWS V14.01,2013-02-01 02:43:00,
2013-01-31 18:48:00,32.7,28.7,28.32,SSW,202,0.0,0.0,85,0.00,,---,0.00,VWS V14.01,2013-02-01 02:48:00,
2013-01-31 18:53:00,32.9,29.2,28.32,SSW,202,0.0,0.0,86,0.00,,---,0.00,VWS V14.01,2013-02-01 02:53:00,
2013-01-31 18:58:00,32.7,29.0,28.35,SW,225,0.0,0.0,86,0.00,,---,0.00,VWS V14.01,2013-02-01 02:58:00,
2013-01-31 19:03:00,32.7,29.0,28.35,East,90,0.0,0.0,86,0.00,,---,0.00,VWS V14.01,2013-02-01 03:03:00,
2013-01-31 19:08:00,32.5,28.8,28.35,SSE,158,0.0,0.0,86,0.00,,---,0.00,VWS V14.01,2013-02-01 03:08:00,
2013-01-31 19:13:00,32.4,28.6,28.32,SW,225,0.0,0.0,86,0.00,,---,0.00,VWS V14.01,2013-02-01 03:13:00,
2013-01-31 19:18:00,32.5,29.1,28.32,SW,225,0.0,0.0,87,0.00,,---,0.00,VWS V14.01,2013-02-01 03:18:00,
2013-01-31 19:23:00,32.2,28.8,28.32,WSW,248,0.0,0.0,87,0.00,,---,0.00,VWS V14.01,2013-02-01 03:23:00,
2013-01-31 19:28:00,32.2,29.0,28.32,WSW,248,0.0,0.0,88,0.00,,---,0.00,VWS V14.01,2013-02-01 03:28:00,
2013-01-31 19:33:00,32.2,29.0,28.32,SSE,158,0.0,0.0,88,0.00,,---,0.00,VWS V14.01,2013-02-01 03:33:00,
2013-01-31 19:39:00,31.8,28.7,28.32,SW,225,0.0,0.0,88,0.00,,---,0.00,VWS V14.01,2013-02-01 03:39:00,
2013-01-31 19:44:00,31.6,28.5,28.32,SW,225,0.0,0.0,88,0.00,,---,0.00,VWS V14.01,2013-02-01 03:44:00,
2013-01-31 19:49:00,31.5,28.3,28.35,West,270,0.0,0.0,88,0.00,,---,0.00,VWS V14.01,2013-02-01 03:49:00,
2013-01-31 19:54:00,31.3,28.1,28.35,NW,315,0.0,0.9,88,0.00,,---,0.00,VWS V14.01,2013-02-01 03:54:00,
2013-01-31 19:59:00,31.1,28.0,28.35,SSW,202,0.0,0.0,88,0.00,,---,0.00,VWS V14.01,2013-02-01 03:59:00,
2013-01-31 20:04:00,31.1,28.2,28.35,SSW,202,0.0,0.0,89,0.00,,---,0.00,VWS V14.01,2013-02-01 04:04:00,
2013-01-31 20:09:00,30.9,28.1,28.35,NE,45,0.0,1.6,89,0.00,,---,0.00,VWS V14.01,2013-02-01 04:09:00,
2013-01-31 20:14:00,30.6,27.4,28.32,SW,225,0.0,0.0,88,0.00,,---,0.00,VWS V14.01,2013-02-01 04:14:00,
2013-01-31 20:19:00,30.6,27.4,28.32,SSE,158,0.0,0.0,88,0.00,,---,0.00,VWS V14.01,2013-02-01 04:19:00,
2013-01-31 20:24:00,30.2,27.4,28.32,SW,225,0.0,0.0,89,0.00,,---,0.00,VWS V14.01,2013-02-01 04:24:00,
2013-01-31 20:29:00,30.2,27.4,28.32,SSE,158,0.0,0.0,89,0.00,,---,0.00,VWS V14.01,2013-02-01 04:29:00,
2013-01-31 20:34:00,29.8,27.0,28.32,West,270,0.0,0.0,89,0.00,,---,0.00,VWS V14.01,2013-02-01 04:34:00,
2013-01-31 20:39:00,29.7,26.8,28.32,ENE,68,0.0,0.0,89,0.00,,---,0.00,VWS V14.01,2013-02-01 04:39:00,
2013-01-31 20:44:00,29.5,26.6,28.32,SSW,202,0.0,0.0,89,0.00,,---,0.00,VWS V14.01,2013-02-01 04:44:00,
2013-01-31 20:49:00,29.5,26.6,28.32,NE,45,0.0,0.0,89,0.00,,---,0.00,VWS V14.01,2013-02-01 04:49:00,
2013-01-31 20:54:00,29.3,26.5,28.32,WSW,248,0.0,0.0,89,0.00,,---,0.00,VWS V14.01,2013-02-01 04:54:00,
2013-01-31 20:59:00,29.5,26.9,28.35,East,90,0.0,0.0,90,0.00,,---,0.00,VWS V14.01,2013-02-01 04:59:00,
2013-01-31 21:00:00,29.5,26.9,28.35,East,90,0.0,0.0,90,0.00,,---,0.00,VWS V14.01,2013-02-01 05:00:00,
2013-01-31 21:01:00,29.3,26.7,28.35,SSW,202,0.0,0.0,90,0.00,,---,0.00,VWS V14.01,2013-02-01 05:01:00,
2013-01-31 21:06:00,29.1,26.6,28.35,SSE,158,0.0,0.0,90,0.00,,---,0.00,VWS V14.01,2013-02-01 05:06:00,
2013-01-31 21:11:00,28.8,26.2,28.35,SSW,202,0.0,0.0,90,0.00,,---,0.00,VWS V14.01,2013-02-01 05:11:00,
2013-01-31 21:16:00,28.6,26.0,28.35,WSW,248,0.0,0.0,90,0.00,,---,0.00,VWS V14.01,2013-02-01 05:16:00,
2013-01-31 21:21:00,28.8,26.7,28.35,WSW,248,0.0,0.0,92,0.00,,---,0.00,VWS V14.01,2013-02-01 05:21:00,
2013-01-31 21:26:00,28.8,26.7,28.35,ESE,112,0.0,0.0,92,0.00,,---,0.00,VWS V14.01,2013-02-01 05:26:00,
2013-01-31 21:31:00,28.6,26.3,28.35,ESE,112,0.0,0.0,91,0.00,,---,0.00,VWS V14.01,2013-02-01 05:31:00,
2013-01-31 21:36:00,28.4,26.1,28.35,ESE,112,0.0,0.0,91,0.00,,---,0.00,VWS V14.01,2013-02-01 05:36:00,
2013-01-31 21:41:00,28.2,25.9,28.35,ESE,112,0.0,0.0,91,0.00,,---,0.00,VWS V14.01,2013-02-01 05:41:00,
2013-01-31 21:46:00,28.0,25.8,28.35,ESE,112,0.0,0.0,91,0.00,,---,0.00,VWS V14.01,2013-02-01 05:46:00,
2013-01-31 21:51:00,27.9,25.6,28.35,WSW,248,0.0,0.0,91,0.00,,---,0.00,VWS V14.01,2013-02-01 05:51:00,
2013-01-31 21:56:00,27.9,25.6,28.35,SW,225,0.0,0.0,91,0.00,,---,0.00,VWS V14.01,2013-02-01 05:56:00,
2013-01-31 22:01:00,27.7,25.4,28.35,SW,225,0.0,0.0,91,0.00,,---,0.00,VWS V14.01,2013-02-01 06:01:00,
2013-01-31 22:07:00,27.5,25.2,28.35,WSW,248,0.0,0.0,91,0.00,,---,0.00,VWS V14.01,2013-02-01 06:07:00,
2013-01-31 22:12:00,27.7,25.4,28.35,ENE,68,0.0,0.0,91,0.00,,---,0.00,VWS V14.01,2013-02-01 06:12:00,
2013-01-31 22:17:00,27.5,25.2,28.35,ENE,68,0.0,0.0,91,0.00,,---,0.00,VWS V14.01,2013-02-01 06:17:00,
2013-01-31 22:22:00,27.5,25.5,28.35,WSW,248,0.0,0.0,92,0.00,,---,0.00,VWS V14.01,2013-02-01 06:22:00,
2013-01-31 22:27:00,27.7,25.7,28.35,NE,45,0.0,0.0,92,0.00,,---,0.00,VWS V14.01,2013-02-01 06:27:00,
2013-01-31 22:32:00,27.5,25.5,28.35,NE,45,0.0,0.0,92,0.00,,---,0.00,VWS V14.01,2013-02-01 06:32:00,
2013-01-31 22:37:00,27.3,25.3,28.35,NE,45,0.0,0.0,92,0.00,,---,0.00,VWS V14.01,2013-02-01 06:37:00,
2013-01-31 22:42:00,27.0,24.7,28.35,ENE,68,0.0,0.0,91,0.00,,---,0.00,VWS V14.01,2013-02-01 06:42:00,
2013-01-31 22:47:00,27.0,24.7,28.35,SW,225,0.0,0.0,91,0.00,,---,0.00,VWS V14.01,2013-02-01 06:47:00,
2013-01-31 22:52:00,27.1,25.1,28.35,South,180,0.0,0.0,92,0.00,,---,0.00,VWS V14.01,2013-02-01 06:52:00,
2013-01-31 22:57:00,26.8,24.5,28.35,South,180,0.0,0.0,91,0.00,,---,0.00,VWS V14.01,2013-02-01 06:57:00,
2013-01-31 23:02:00,26.6,24.6,28.38,South,180,0.0,0.0,92,0.00,,---,0.00,VWS V14.01,2013-02-01 07:02:00,
2013-01-31 23:07:00,26.4,24.1,28.38,South,180,0.0,0.0,91,0.00,,---,0.00,VWS V14.01,2013-02-01 07:07:00,
2013-01-31 23:12:00,26.4,24.4,28.38,South,180,0.0,0.0,92,0.00,,---,0.00,VWS V14.01,2013-02-01 07:12:00,
2013-01-31 23:17:00,26.4,24.4,28.35,WNW,292,0.0,0.0,92,0.00,,---,0.00,VWS V14.01,2013-02-01 07:17:00,
2013-01-31 23:22:00,26.6,24.9,28.35,WNW,292,0.0,0.0,93,0.00,,---,0.00,VWS V14.01,2013-02-01 07:22:00,
2013-01-31 23:27:00,26.4,24.7,28.35,West,270,0.0,0.0,93,0.00,,---,0.00,VWS V14.01,2013-02-01 07:27:00,
2013-01-31 23:32:00,26.6,24.9,28.38,West,270,0.0,0.0,93,0.00,,---,0.00,VWS V14.01,2013-02-01 07:32:00,
2013-01-31 23:37:00,26.4,24.7,28.38,West,270,0.0,0.0,93,0.00,,---,0.00,VWS V14.01,2013-02-01 07:37:00,
2013-01-31 23:42:00,26.6,24.9,28.38,West,270,0.0,0.0,93,0.00,,---,0.00,VWS V14.01,2013-02-01 07:42:00,
2013-01-31 23:47:00,26.2,24.5,28.38,West,270,0.0,0.0,93,0.00,,---,0.00,VWS V14.01,2013-02-01 07:47:00,
2013-01-31 23:52:00,26.1,24.1,28.38,West,270,0.0,0.0,92,0.00,,---,0.00,VWS V14.01,2013-02-01 07:52:00,
2013-01-31 23:57:00,25.9,23.9,28.38,West,270,0.0,0.0,92,0.00,,---,0.00,VWS V14.01,2013-02-01 07:57:00,